Time;durP1;ratioP1;P1;durP2;ratioP2;P2;SDS_P1;SDS_P2;PMS_P1;PMS_P2;Temp;Humidity;BMP_temperature;BMP_pressure;BME280_temperature;BME280_humidity;BME280_pressure;Samples;Min_cycle;Max_cycle;Signal;HPM_P1;HPM_P2
2023/09/11 04:22:33;;;;;;;9.35;7.20;;;;;;;14.73;100.00;100097.22;5088924;28;20429;-67
2023/09/11 04:24:58;;;;;;;10.45;6.90;;;;;;;14.80;100.00;100105.28;5088723;28;20032;-66
2023/09/11 04:27:24;;;;;;;9.82;6.80;;;;;;;14.78;100.00;100097.44;5087943;28;20712;-66
2023/09/11 04:29:49;;;;;;;13.20;7.50;;;;;;;14.79;100.00;100099.09;5087918;28;20040;-67
2023/09/11 04:32:17;;;;;;;12.93;7.35;;;;;;;14.69;100.00;100082.59;5087716;28;20043;-67
2023/09/11 04:34:43;;;;;;;10.25;7.70;;;;;;;14.77;100.00;100106.53;5080970;28;20047;-66
2023/09/11 04:37:09;;;;;;;11.10;7.00;;;;;;;14.75;100.00;100107.78;5068815;28;20029;-66
2023/09/11 04:39:34;;;;;;;9.13;6.80;;;;;;;14.81;100.00;100113.16;5068919;28;20047;-67
2023/09/11 04:42:00;;;;;;;11.70;6.82;;;;;;;14.77;100.00;100111.88;5068498;28;20033;-66
2023/09/11 04:44:25;;;;;;;8.88;7.10;;;;;;;14.82;100.00;100108.59;5068126;28;20068;-66
2023/09/11 04:46:51;;;;;;;9.50;6.40;;;;;;;14.90;100.00;100103.84;5068780;28;20559;-65
2023/09/11 04:49:16;;;;;;;8.93;6.85;;;;;;;14.88;100.00;100108.63;5067067;28;20029;-66
2023/09/11 04:51:42;;;;;;;16.63;8.32;;;;;;;14.82;100.00;100114.78;5067359;28;20035;-66
2023/09/11 04:54:07;;;;;;;11.60;8.55;;;;;;;14.75;100.00;100107.78;5068326;28;20040;-66
2023/09/11 04:56:33;;;;;;;16.30;11.18;;;;;;;14.70;100.00;100111.06;5067289;28;20086;-66
2023/09/11 04:58:58;;;;;;;36.42;25.00;;;;;;;14.75;100.00;100118.50;5068526;28;20052;-67
2023/09/11 05:01:23;;;;;;;16.95;12.82;;;;;;;14.71;100.00;100125.28;5068457;28;20061;-66
2023/09/11 05:03:50;;;;;;;13.20;9.63;;;;;;;14.65;100.00;100119.69;5066918;28;20036;-66
2023/09/11 05:06:16;;;;;;;10.57;8.35;;;;;;;14.70;100.00;100116.41;5067045;28;20514;-66
2023/09/11 05:08:41;;;;;;;14.10;7.68;;;;;;;14.70;100.00;100112.91;5068441;28;20114;-66
2023/09/11 05:11:07;;;;;;;11.38;7.22;;;;;;;14.65;100.00;100119.69;5042987;28;20048;-66
2023/09/11 05:13:33;;;;;;;11.27;7.93;;;;;;;14.61;100.00;100109.59;5069259;28;20091;-66
2023/09/11 05:15:58;;;;;;;10.15;7.93;;;;;;;14.73;100.00;100113.31;5066705;28;20040;-66
2023/09/11 05:18:24;;;;;;;9.25;7.00;;;;;;;14.70;100.00;100119.09;5066857;28;20041;-67
2023/09/11 05:20:50;;;;;;;13.65;7.88;;;;;;;14.74;100.00;100112.31;5066732;28;20118;-67
2023/09/11 05:23:18;;;;;;;13.57;7.63;;;;;;;14.74;100.00;100119.53;5066441;28;20032;-67
2023/09/11 05:25:44;;;;;;;10.60;6.90;;;;;;;14.72;100.00;100108.97;5067605;28;20037;-66
2023/09/11 05:28:09;;;;;;;9.77;6.78;;;;;;;14.81;100.00;100112.31;5067826;28;20039;-67
2023/09/11 05:30:35;;;;;;;10.60;6.65;;;;;;;14.91;100.00;100112.72;5074461;28;20032;-67
2023/09/11 05:33:00;;;;;;;9.77;6.55;;;;;;;14.91;100.00;100112.72;5079388;28;20068;-67
2023/09/11 05:35:26;;;;;;;8.63;6.70;;;;;;;14.92;100.00;100109.84;5074574;28;20039;-66
2023/09/11 05:37:51;;;;;;;11.77;6.45;;;;;;;14.90;100.00;100111.09;5074540;28;20469;-67
2023/09/11 05:40:16;;;;;;;10.52;6.78;;;;;;;14.99;100.00;100103.66;5074462;28;20044;-66
2023/09/11 05:42:43;;;;;;;8.05;5.93;;;;;;;15.09;100.00;100117.50;5074251;28;20041;-67
2023/09/11 05:45:09;;;;;;;8.20;6.60;;;;;;;15.16;100.00;100121.00;5074288;28;20081;-66
2023/09/11 05:47:34;;;;;;;9.40;6.60;;;;;;;15.20;100.00;100119.56;5072304;28;20036;-66
2023/09/11 05:50:01;;;;;;;9.43;6.65;;;;;;;15.31;100.00;100124.31;5054400;28;20037;-57
2023/09/11 05:52:30;;;;;;;8.73;6.13;;;;;;;15.43;100.00;100121.81;5054030;28;20037;-57
2023/09/11 05:54:55;;;;;;;9.18;6.70;;;;;;;15.42;100.00;100115.63;5054176;28;20047;-59
2023/09/11 05:57:21;;;;;;;8.70;5.90;;;;;;;15.47;100.00;100123.06;5054000;28;20446;-59
2023/09/11 05:59:46;;;;;;;8.02;5.95;;;;;;;15.55;100.00;100130.06;5054070;28;20041;-60
2023/09/11 06:02:12;;;;;;;8.90;6.65;;;;;;;15.61;100.00;100124.69;5053696;28;20040;-58
2023/09/11 06:04:38;;;;;;;7.40;5.65;;;;;;;15.62;100.00;100120.19;5054037;28;20049;-56
2023/09/11 06:07:03;;;;;;;8.90;6.20;;;;;;;15.71;100.00;100118.91;5053869;28;20087;-59
2023/09/11 06:09:30;;;;;;;8.35;6.28;;;;;;;15.84;100.00;100121.56;5054035;28;20041;-57
2023/09/11 06:11:55;;;;;;;9.93;6.00;;;;;;;15.88;100.00;100124.69;5053577;28;20040;-60
2023/09/11 06:14:21;;;;;;;8.52;6.43;;;;;;;15.95;100.00;100136.22;5053836;28;20059;-59
2023/09/11 06:16:46;;;;;;;8.50;6.72;;;;;;;16.02;100.00;100127.09;5053702;28;20132;-59
2023/09/11 06:19:11;;;;;;;8.82;6.18;;;;;;;16.08;100.00;100130.81;5053774;28;20072;-60
2023/09/11 06:21:37;;;;;;;10.07;6.25;;;;;;;16.16;100.00;100130.56;5053472;28;20037;-60
2023/09/11 06:24:04;;;;;;;9.23;6.43;;;;;;;16.23;100.00;100135.91;5053555;28;20044;-57
2023/09/11 06:26:30;;;;;;;10.30;7.22;;;;;;;16.34;100.00;100129.06;5056931;28;20056;-60
2023/09/11 06:28:55;;;;;;;10.57;7.25;;;;;;;16.41;100.00;100127.16;5053528;28;20499;-58
2023/09/11 06:31:21;;;;;;;11.73;7.70;;;;;;;16.49;100.00;100133.09;5053609;28;20037;-57
2023/09/11 06:33:47;;;;;;;9.52;7.15;;;;;;;16.56;100.00;100125.00;5058969;28;20033;-57
2023/09/11 06:36:13;;;;;;;14.70;7.60;;;;;;;16.62;100.00;100129.53;5062990;28;20028;-58
2023/09/11 06:38:38;;;;;;;11.50;7.30;;;;;;;16.72;100.00;100129.94;5062474;28;20037;-57
2023/09/11 06:41:04;;;;;;;12.50;7.72;;;;;;;16.65;100.00;100107.59;5062703;28;20037;-59
2023/09/11 06:43:29;;;;;;;10.02;7.47;;;;;;;16.93;100.00;100136.81;5061626;28;20033;-60
2023/09/11 06:45:54;;;;;;;10.85;8.27;;;;;;;17.01;100.00;100136.56;5060687;28;20389;-60
2023/09/11 06:48:21;;;;;;;12.27;7.88;;;;;;;17.05;100.00;100127.00;5063524;28;20063;-60
2023/09/11 06:50:47;;;;;;;12.38;8.00;;;;;;;17.19;100.00;100133.13;5060522;28;20043;-60
2023/09/11 06:53:13;;;;;;;11.40;8.07;;;;;;;17.29;100.00;100128.06;5062819;28;20036;-58
2023/09/11 06:55:45;;;;;;;12.90;7.85;;;;;;;17.41;100.00;100130.03;5051670;28;20095;-60
2023/09/11 06:58:10;;;;;;;10.82;7.60;;;;;;;17.52;100.00;100127.44;5059934;28;20028;-58
2023/09/11 07:00:36;;;;;;;11.27;8.52;;;;;;;17.62;100.00;100133.16;5061165;28;20049;-60
2023/09/11 07:03:01;;;;;;;11.00;7.80;;;;;;;17.70;100.00;100132.06;5062470;28;20029;-59
2023/09/11 07:05:28;;;;;;;15.40;8.32;;;;;;;17.83;100.00;100129.25;5060008;28;20029;-58
2023/09/11 07:07:54;;;;;;;11.30;7.90;;;;;;;17.90;100.00;100129.19;5062416;28;20113;-59
2023/09/11 07:10:19;;;;;;;11.60;8.32;;;;;;;18.04;100.00;100135.25;5061600;28;20489;-59
2023/09/11 07:12:46;;;;;;;12.23;8.15;;;;;;;18.15;100.00;100132.63;5058625;28;20505;-60
2023/09/11 07:15:11;;;;;;;13.02;8.25;;;;;;;18.27;100.00;100126.47;5060075;28;20033;-60
2023/09/11 07:17:37;;;;;;;9.90;7.85;;;;;;;18.36;100.00;100122.41;5052532;28;20037;-59
2023/09/11 07:20:04;;;;;;;10.85;8.13;;;;;;;18.52;100.00;100129.03;5052211;28;20114;-59
2023/09/11 07:22:30;;;;;;;14.57;8.38;;;;;;;18.59;100.00;100127.09;5050751;28;20148;-58
2023/09/11 07:24:55;;;;;;;10.93;7.72;;;;;;;18.70;100.00;100129.84;5055089;28;20124;-59
2023/09/11 07:27:21;;;;;;;13.65;8.40;;;;;;;18.81;100.00;100122.03;5062328;28;20032;-60
2023/09/11 07:29:46;;;;;;;10.13;7.82;;;;;;;18.88;100.00;100128.97;5061594;28;20028;-57
2023/09/11 07:32:11;;;;;;;12.48;7.95;;;;;;;19.02;100.00;100126.09;5061998;28;20024;-58
2023/09/11 07:34:37;;;;;;;13.07;7.95;;;;;;;19.05;100.00;100134.56;5062953;28;20494;-59
2023/09/11 07:37:03;;;;;;;10.20;7.45;;;;;;;19.17;100.00;100132.72;5072179;28;20041;-58
2023/09/11 07:39:29;;;;;;;13.07;9.00;;;;;;;19.28;100.00;100130.25;5071186;28;20372;-59
2023/09/11 07:41:54;;;;;;;15.27;8.40;;;;;;;19.36;100.00;100132.59;5071866;28;20090;-59
2023/09/11 07:44:20;;;;;;;12.50;8.55;;;;;;;19.44;100.00;100140.38;5071028;28;20471;-58
2023/09/11 07:46:45;;;;;;;10.52;7.78;;;;;;;19.53;100.00;100141.66;5072128;28;20033;-59
2023/09/11 07:49:10;;;;;;;9.65;7.50;;;;;;;19.72;100.00;100135.09;5070959;28;20464;-59
2023/09/11 07:51:36;;;;;;;12.50;7.68;;;;;;;19.84;100.00;100139.69;5056752;28;20041;-59
2023/09/11 07:54:01;;;;;;;9.77;7.20;;;;;;;19.95;100.00;100142.38;5051831;28;20071;-59
2023/09/11 07:56:26;;;;;;;14.63;8.68;;;;;;;20.05;100.00;100144.47;5050489;28;20040;-60
2023/09/11 07:58:53;;;;;;;11.82;7.70;;;;;;;20.28;100.00;100149.84;5052149;28;20427;-59
2023/09/11 08:01:19;;;;;;;13.00;7.35;;;;;;;20.40;100.00;100149.78;5052045;28;20064;-59
2023/09/11 08:03:44;;;;;;;10.13;6.90;;;;;;;20.56;100.00;100149.06;5051681;28;20083;-59
2023/09/11 08:06:10;;;;;;;9.95;7.72;;;;;;;20.54;100.00;100153.09;5051901;28;20061;-60
2023/09/11 08:08:37;;;;;;;9.30;7.00;;;;;;;20.54;100.00;100150.38;5051896;28;20503;-60
2023/09/11 08:11:16;;;;;;;9.48;7.13;;;;;;;20.59;100.00;100156.69;5051835;28;20060;-59
2023/09/11 08:13:50;;;;;;;10.02;7.85;;;;;;;20.66;99.99;100150.31;5051913;28;20044;-60
2023/09/11 08:16:16;;;;;;;9.43;7.28;;;;;;;20.79;99.33;100141.91;5051897;28;20105;-60
2023/09/11 08:18:43;;;;;;;7.97;6.70;;;;;;;20.90;100.00;100145.63;5051905;28;20040;-60
2023/09/11 08:21:09;;;;;;;13.18;8.20;;;;;;;20.98;98.89;100148.75;5051644;28;20072;-58
2023/09/11 08:23:34;;;;;;;8.73;6.53;;;;;;;21.05;98.95;100149.41;5051457;28;20068;-59
2023/09/11 08:26:01;;;;;;;10.77;7.20;;;;;;;21.11;96.95;100151.16;5051644;28;20041;-59
2023/09/11 08:28:30;;;;;;;8.93;6.53;;;;;;;21.20;96.14;100145.34;5051849;28;20044;-59
2023/09/11 08:30:56;;;;;;;9.82;7.25;;;;;;;21.25;97.01;100134.56;5051638;28;20041;-60
2023/09/11 08:33:22;;;;;;;10.52;6.95;;;;;;;21.37;95.74;100149.72;5051385;28;20132;-60
2023/09/11 08:35:48;;;;;;;8.13;7.03;;;;;;;21.56;95.02;100146.75;5051467;28;20527;-60
2023/09/11 08:38:16;;;;;;;9.95;6.82;;;;;;;21.56;93.69;100139.44;5051634;28;20132;-60
2023/09/11 08:40:42;;;;;;;7.97;6.50;;;;;;;21.57;93.68;100138.38;5051653;28;20025;-60
2023/09/11 08:43:07;;;;;;;7.10;6.30;;;;;;;21.68;93.07;100140.16;5051302;28;20124;-60
2023/09/11 08:45:33;;;;;;;13.85;7.07;;;;;;;21.81;92.40;100140.91;5051572;28;20117;-59
2023/09/11 08:47:59;;;;;;;9.52;7.45;;;;;;;21.88;91.98;100145.06;5051587;28;20029;-59
2023/09/11 08:50:31;;;;;;;7.75;6.40;;;;;;;21.98;91.95;100143.56;5051439;28;20550;-60
2023/09/11 08:53:01;;;;;;;9.52;6.93;;;;;;;22.05;91.36;100144.22;5051127;28;20055;-58
2023/09/11 08:55:33;;;;;;;10.48;7.15;;;;;;;22.34;91.33;100145.69;5051382;28;20530;-59
2023/09/11 08:58:04;;;;;;;7.90;6.45;;;;;;;22.43;90.57;100141.47;5051486;28;20452;-60
2023/09/11 09:00:32;;;;;;;9.10;6.43;;;;;;;22.48;90.62;100137.97;5051517;28;20041;-60
2023/09/11 09:02:58;;;;;;;;;;;;;;;22.71;88.99;100145.03;5051471;28;20043;-60
2023/09/11 09:05:24;;;;;;;13.55;6.95;;;;;;;22.75;87.19;100132.56;5051545;28;20341;-59
2023/09/11 09:07:51;;;;;;;8.80;6.75;;;;;;;22.77;86.96;100137.75;5052612;28;20037;-59
2023/09/11 09:10:17;;;;;;;;;;;;;;;22.98;87.47;100136.91;5055493;28;20404;-60
2023/09/11 09:12:44;;;;;;;8.00;6.63;;;;;;;23.22;86.65;100134.69;5054876;28;20001;-60
2023/09/11 09:15:10;;;;;;;8.20;6.93;;;;;;;23.35;85.15;100136.13;5054895;28;20128;-57
2023/09/11 09:17:35;;;;;;;7.85;6.53;;;;;;;23.49;84.09;100131.88;5065097;28;20131;-56
2023/09/11 09:20:01;;;;;;;9.45;6.80;;;;;;;23.69;83.41;100132.06;5074923;28;20117;-60
2023/09/11 09:22:26;;;;;;;8.65;6.72;;;;;;;23.94;79.01;100125.13;5074515;28;20037;-58
2023/09/11 09:24:55;;;;;;;9.23;6.20;;;;;;;24.28;80.80;100120.09;5074789;28;20048;-57
2023/09/11 09:27:22;;;;;;;9.98;6.82;;;;;;;24.56;79.04;100130.56;5074739;28;20041;-56
2023/09/11 09:29:48;;;;;;;11.05;7.47;;;;;;;24.63;78.81;100128.41;5074763;28;20134;-59
2023/09/11 09:32:14;;;;;;;6.63;6.03;;;;;;;24.58;77.86;100124.84;5074359;28;20040;-58
2023/09/11 09:34:58;;;;;;;8.68;6.63;;;;;;;24.64;76.38;100115.59;5074712;28;20039;-60
2023/09/11 09:37:24;;;;;;;8.20;6.40;;;;;;;24.72;75.12;100112.38;5074627;28;20178;-59
2023/09/11 09:39:50;;;;;;;7.72;6.15;;;;;;;25.00;80.35;100115.66;5074545;28;20127;-56
2023/09/11 09:42:16;;;;;;;9.77;6.63;;;;;;;25.10;74.71;100108.34;5074325;28;20028;-59
2023/09/11 09:44:45;;;;;;;9.65;6.57;;;;;;;25.17;72.74;100103.44;5074556;28;20071;-59
2023/09/11 09:47:13;;;;;;;8.23;6.57;;;;;;;25.30;71.35;100106.69;5074432;28;20036;-60
2023/09/11 09:49:44;;;;;;;11.68;6.57;;;;;;;25.39;70.90;100099.59;5074479;28;20062;-59
2023/09/11 09:52:10;;;;;;;7.15;5.55;;;;;;;25.69;69.42;100096.81;5074079;28;20041;-58
2023/09/11 09:54:43;;;;;;;7.78;6.45;;;;;;;26.15;69.08;100093.16;5074357;28;20043;-59
2023/09/11 09:57:11;;;;;;;9.88;6.13;;;;;;;26.37;65.16;100088.09;5074219;28;20138;-59
2023/09/11 09:59:37;;;;;;;9.45;6.20;;;;;;;26.55;65.35;100092.13;5074274;28;20078;-59
2023/09/11 10:02:02;;;;;;;8.40;6.38;;;;;;;27.05;63.84;100090.16;5073939;28;20433;-55
2023/09/11 10:04:28;;;;;;;7.82;6.05;;;;;;;27.78;63.37;100078.28;5074230;28;20040;-58
2023/09/11 10:06:54;;;;;;;10.23;5.65;;;;;;;28.29;58.70;100078.41;5074061;28;20045;-60
2023/09/11 10:09:20;;;;;;;7.10;5.30;;;;;;;28.64;55.46;100074.41;5074038;28;20487;-59
2023/09/11 10:11:46;;;;;;;6.50;5.20;;;;;;;29.08;53.99;100077.81;5073614;28;20048;-60
2023/09/11 10:14:11;;;;;;;6.65;5.80;;;;;;;29.33;51.68;100074.63;5073973;28;20051;-60
2023/09/11 10:16:37;;;;;;;7.57;5.60;;;;;;;29.54;50.43;100074.28;5073963;28;20043;-59
2023/09/11 10:19:03;;;;;;;6.88;5.07;;;;;;;30.03;48.43;100070.03;5073815;28;20028;-60
2023/09/11 10:21:29;;;;;;;8.77;4.87;;;;;;;30.31;46.30;100063.38;5072500;28;20479;-59
2023/09/11 10:23:56;;;;;;;5.68;5.03;;;;;;;30.42;46.00;100056.56;5073404;28;20290;-58
2023/09/11 10:26:36;;;;;;;5.82;5.22;;;;;;;31.03;45.70;100054.28;5073805;28;20446;-60
2023/09/11 10:29:05;;;;;;;6.28;5.05;;;;;;;31.44;44.72;100053.25;5073714;28;20479;-59
2023/09/11 10:31:49;;;;;;;6.68;5.53;;;;;;;31.95;43.14;100052.66;5073568;28;20036;-60
2023/09/11 10:34:15;;;;;;;6.30;5.13;;;;;;;32.21;42.08;100049.91;5073367;28;20032;-58
2023/09/11 10:36:53;;;;;;;5.30;4.87;;;;;;;32.58;41.54;100051.28;5073378;28;20774;-60
2023/09/11 10:39:20;;;;;;;5.68;5.15;;;;;;;32.57;42.61;100044.13;5073499;28;20041;-59
2023/09/11 10:41:46;;;;;;;6.38;5.13;;;;;;;33.06;42.43;100041.16;5073478;28;20411;-59
2023/09/11 10:44:11;;;;;;;8.03;4.87;;;;;;;33.34;40.30;100039.63;5073256;28;20062;-59
2023/09/11 10:46:39;;;;;;;7.13;5.17;;;;;;;33.57;39.92;100042.97;5073289;28;20115;-60
2023/09/11 10:49:23;;;;;;;7.00;4.72;;;;;;;33.89;37.75;100035.97;5073245;28;20083;-58
2023/09/11 10:51:49;;;;;;;5.03;4.57;;;;;;;33.93;37.43;100033.41;5073129;28;20083;-60
2023/09/11 10:54:22;;;;;;;5.97;4.82;;;;;;;33.83;37.76;100042.03;5072983;28;20089;-60
2023/09/11 10:56:51;;;;;;;6.13;4.20;;;;;;;34.06;37.01;100034.28;5072981;28;20071;-60
2023/09/11 10:59:19;;;;;;;5.28;4.78;;;;;;;34.63;36.19;100030.94;5072929;28;20079;-60
2023/09/11 11:01:47;;;;;;;5.38;4.88;;;;;;;34.49;36.55;100020.16;5072944;28;20043;-59
2023/09/11 11:04:15;;;;;;;5.45;4.90;;;;;;;34.18;37.30;100018.59;5072690;28;20087;-59
2023/09/11 11:06:54;;;;;;;5.95;4.95;;;;;;;33.95;37.99;100020.84;5072798;28;20090;-60
2023/09/11 11:09:48;;;;;;;5.28;4.78;;;;;;;34.73;36.53;100020.25;5072896;28;20043;-59
2023/09/11 11:12:15;;;;;;;7.80;4.90;;;;;;;35.15;36.47;100022.09;5071134;28;20510;-59
2023/09/11 11:14:40;;;;;;;5.47;4.70;;;;;;;35.40;35.92;100009.91;5072807;28;20129;-59
2023/09/11 11:17:11;;;;;;;5.13;4.57;;;;;;;35.99;34.46;100014.22;5072671;28;20499;-60
2023/09/11 11:19:58;;;;;;;7.63;4.70;;;;;;;36.22;34.04;100011.75;5072739;28;20070;-60
2023/09/11 11:22:31;;;;;;;6.05;4.72;;;;;;;36.29;34.16;100009.19;5071818;28;20044;-60
2023/09/11 11:24:58;;;;;;;6.05;4.43;;;;;;;36.34;33.20;100000.63;5072661;28;20037;-58
2023/09/11 11:27:23;;;;;;;6.93;4.80;;;;;;;36.14;33.89;99994.09;5072486;28;20123;-60
2023/09/11 11:29:49;;;;;;;5.67;5.07;;;;;;;36.66;33.75;99991.25;5072320;28;20453;-59
2023/09/11 11:32:17;;;;;;;6.68;4.40;;;;;;;37.17;32.50;99996.19;5071877;28;20035;-59
2023/09/11 11:34:44;;;;;;;5.05;4.45;;;;;;;36.93;32.59;99995.19;5072417;28;20502;-60
2023/09/11 11:37:11;;;;;;;5.05;4.40;;;;;;;37.08;32.51;99992.78;5071931;28;21310;-59
2023/09/11 11:39:37;;;;;;;5.53;4.50;;;;;;;37.41;32.10;99996.00;5058151;28;20427;-59
2023/09/11 11:42:03;;;;;;;5.80;4.70;;;;;;;37.50;31.97;99992.25;5044107;28;20029;-60
2023/09/11 11:44:33;;;;;;;5.47;4.57;;;;;;;38.18;29.98;99989.06;5043893;28;20047;-60
2023/09/11 11:46:59;;;;;;;5.00;4.50;;;;;;;38.52;29.93;99990.97;5059931;28;20040;-59
2023/09/11 11:49:24;;;;;;;6.78;4.00;;;;;;;38.52;30.38;99987.38;5061759;28;20104;-59
2023/09/11 11:51:50;;;;;;;4.50;4.10;;;;;;;38.17;30.06;99982.69;5062575;28;20036;-57
2023/09/11 11:54:26;;;;;;;5.32;4.05;;;;;;;37.82;30.86;99982.72;5060483;28;20025;-58
2023/09/11 11:56:55;;;;;;;;;;;;;;;38.51;29.73;99981.00;5061077;28;20151;-57
2023/09/11 11:59:21;;;;;;;4.35;3.83;;;;;;;38.86;28.68;99980.09;5062283;28;20058;-58
2023/09/11 12:01:47;;;;;;;6.45;4.25;;;;;;;37.92;30.18;99981.34;5043227;28;20017;-57
2023/09/11 12:04:12;;;;;;;5.00;4.07;;;;;;;38.83;28.95;99978.06;5060336;28;20116;-58
2023/09/11 12:06:38;;;;;;;5.40;4.00;;;;;;;38.95;28.90;99983.44;5062369;28;20483;-60
2023/09/11 12:09:03;;;;;;;4.50;3.90;;;;;;;38.89;28.70;99979.38;5061598;28;20037;-59
2023/09/11 12:11:30;;;;;;;4.78;4.15;;;;;;;38.95;28.26;99975.09;5060889;28;20047;-59
2023/09/11 12:13:56;;;;;;;6.00;3.95;;;;;;;39.07;28.18;99974.91;5044638;28;20142;-58
2023/09/11 12:16:22;;;;;;;6.65;4.57;;;;;;;39.37;27.83;99974.22;5061250;28;20087;-60
2023/09/11 12:18:47;;;;;;;4.70;4.18;;;;;;;39.24;28.71;99970.03;5061128;28;20032;-60
2023/09/11 12:21:13;;;;;;;4.60;4.10;;;;;;;39.08;29.17;99970.97;5062381;28;20483;-59
2023/09/11 12:23:38;;;;;;;7.95;4.68;;;;;;;39.51;28.56;99968.88;5060516;28;20150;-59
2023/09/11 12:26:05;;;;;;;5.38;3.85;;;;;;;39.86;27.49;99953.88;5061465;28;20487;-59
2023/09/11 12:28:30;;;;;;;5.95;4.13;;;;;;;39.20;28.44;99960.84;5043519;28;20034;-59
2023/09/11 12:30:56;;;;;;;6.07;4.40;;;;;;;39.90;27.94;99954.72;5060204;28;20037;-57
2023/09/11 12:33:27;;;;;;;5.25;4.00;;;;;;;39.97;28.00;99954.81;5059883;28;20079;-60
2023/09/11 12:35:53;;;;;;;6.25;4.20;;;;;;;39.41;28.13;99938.88;5062160;28;20048;-60
2023/09/11 12:38:19;;;;;;;5.43;3.90;;;;;;;39.82;27.77;99953.03;5060443;28;20040;-59
2023/09/11 12:40:45;;;;;;;;;;;;;;;40.13;26.70;99947.09;5061669;28;20151;-60
2023/09/11 12:43:11;;;;;;;9.05;3.80;;;;;;;39.74;26.81;99937.38;5069133;28;19970;-60
2023/09/11 12:45:37;;;;;;;;;;;;;;;39.54;27.79;99934.69;5075995;28;20045;-59
2023/09/11 12:48:04;;;;;;;5.78;3.75;;;;;;;38.96;27.60;99936.94;5075554;28;19919;-59
2023/09/11 12:50:30;;;;;;;6.03;3.72;;;;;;;38.73;28.54;99931.34;5075405;28;20037;-60
2023/09/11 12:52:57;;;;;;;6.25;4.07;;;;;;;39.04;27.30;99933.88;5075224;28;20051;-60
2023/09/11 12:55:22;;;;;;;6.13;3.60;;;;;;;39.25;27.02;99924.28;5075401;28;20488;-59
2023/09/11 12:57:49;;;;;;;7.22;3.92;;;;;;;38.66;27.49;99918.09;5075425;28;20044;-60
2023/09/11 13:00:14;;;;;;;5.13;3.70;;;;;;;38.62;27.66;99917.25;5075293;28;20536;-58
2023/09/11 13:02:40;;;;;;;4.15;3.75;;;;;;;39.59;27.37;99919.66;5075066;28;20115;-59
2023/09/11 13:05:07;;;;;;;6.20;3.90;;;;;;;39.12;27.28;99914.50;5075223;28;20118;-60
2023/09/11 13:07:34;;;;;;;4.88;4.20;;;;;;;38.89;28.59;99915.34;5075203;28;20101;-60
2023/09/11 13:10:00;;;;;;;6.70;3.78;;;;;;;39.80;27.14;99914.38;5075155;28;20072;-60
2023/09/11 13:12:25;;;;;;;9.73;3.50;;;;;;;39.56;27.31;99912.81;5074811;28;20102;-60
2023/09/11 13:14:50;;;;;;;5.87;3.97;;;;;;;38.27;27.39;99915.38;5075055;28;20378;-60
2023/09/11 13:17:16;;;;;;;6.40;3.83;;;;;;;38.58;27.63;99908.00;5075012;28;20044;-59
2023/09/11 13:19:41;;;;;;;6.38;3.50;;;;;;;38.88;27.58;99915.72;5074927;28;20491;-58
2023/09/11 13:22:07;;;;;;;5.20;3.73;;;;;;;39.44;27.01;99909.47;5074651;28;20037;-59
2023/09/11 13:24:32;;;;;;;5.30;3.40;;;;;;;39.69;25.35;99898.69;5074883;28;20290;-60
2023/09/11 13:26:58;;;;;;;5.93;3.70;;;;;;;39.21;25.61;99904.75;5074840;28;20119;-60
2023/09/11 13:29:23;;;;;;;4.35;3.20;;;;;;;39.60;26.85;99891.44;5059020;28;20434;-58
2023/09/11 13:31:48;;;;;;;4.80;3.53;;;;;;;39.55;26.54;99893.72;5054619;28;20507;-58
2023/09/11 13:34:14;;;;;;;7.17;4.47;;;;;;;39.61;26.51;99897.81;5054504;28;20115;-60
2023/09/11 13:36:39;;;;;;;4.50;4.07;;;;;;;40.01;26.06;99891.53;5054737;28;20550;-60
2023/09/11 13:39:05;;;;;;;7.57;3.67;;;;;;;39.10;26.33;99895.41;5054645;28;20128;-60
2023/09/11 13:41:31;;;;;;;6.72;3.50;;;;;;;40.06;27.06;99888.44;5054580;28;20116;-58
2023/09/11 13:43:57;;;;;;;5.80;3.70;;;;;;;40.07;27.14;99884.47;5054202;28;20479;-60
2023/09/11 13:46:22;;;;;;;6.07;3.63;;;;;;;40.27;26.17;99885.09;5054380;28;20037;-59
2023/09/11 13:48:48;;;;;;;4.85;3.47;;;;;;;39.68;26.54;99877.59;5054501;28;20075;-60
2023/09/11 13:51:13;;;;;;;4.72;2.97;;;;;;;39.58;26.25;99879.00;5054251;28;20500;-60
2023/09/11 13:53:38;;;;;;;6.07;3.97;;;;;;;39.80;26.12;99877.34;5053600;28;20090;-60
2023/09/11 13:56:04;;;;;;;4.77;3.50;;;;;;;38.46;27.93;99878.38;5054377;28;20116;-60
2023/09/11 13:58:29;;;;;;;5.03;3.47;;;;;;;37.39;28.67;99867.84;5054208;28;20419;-59
2023/09/11 14:00:55;;;;;;;4.70;4.23;;;;;;;37.19;29.21;99871.72;5054238;28;20381;-59
2023/09/11 14:03:20;;;;;;;5.13;3.60;;;;;;;37.15;28.85;99868.84;5053890;28;20045;-60
2023/09/11 14:05:45;;;;;;;5.80;3.67;;;;;;;36.52;29.28;99862.50;5054158;28;20044;-60
2023/09/11 14:08:11;;;;;;;4.53;3.40;;;;;;;35.92;30.66;99870.72;5054083;28;20033;-60
2023/09/11 14:10:36;;;;;;;6.93;3.93;;;;;;;35.94;30.37;99862.06;5061910;28;20393;-58
2023/09/11 14:13:02;;;;;;;6.60;3.50;;;;;;;34.99;31.21;99867.03;5059546;28;20044;-59
2023/09/11 14:15:27;;;;;;;5.13;3.47;;;;;;;34.69;30.37;99855.34;5063721;28;20052;-58
2023/09/11 14:17:52;;;;;;;5.97;3.50;;;;;;;34.31;30.52;99859.16;5063828;28;20057;-58
2023/09/11 14:20:18;;;;;;;4.80;3.27;;;;;;;34.05;32.20;99853.09;5062312;28;20041;-58
2023/09/11 14:22:44;;;;;;;5.00;3.23;;;;;;;33.86;32.47;99851.59;5062896;28;20028;-58
2023/09/11 14:25:10;;;;;;;6.80;3.65;;;;;;;33.77;32.44;99852.81;5063408;28;20419;-60
2023/09/11 14:27:35;;;;;;;8.32;3.80;;;;;;;33.49;33.05;99834.03;5061389;28;20112;-60
2023/09/11 14:30:01;;;;;;;4.17;3.40;;;;;;;33.50;33.16;99838.41;5064360;28;20036;-60
2023/09/11 14:32:26;;;;;;;4.63;3.70;;;;;;;33.36;33.67;99844.16;5062408;28;20152;-59
2023/09/11 14:34:52;;;;;;;5.97;3.60;;;;;;;33.33;33.18;99839.31;5062912;28;20032;-60
2023/09/11 14:37:17;;;;;;;5.70;3.20;;;;;;;33.18;32.86;99835.16;5058686;28;20444;-60
2023/09/11 14:39:43;;;;;;;4.70;3.33;;;;;;;33.22;33.96;99835.31;5056095;28;20033;-60
2023/09/11 14:42:09;;;;;;;4.87;3.40;;;;;;;33.19;34.04;99831.31;5053193;28;20087;-59
2023/09/11 14:44:34;;;;;;;4.17;3.53;;;;;;;33.22;34.79;99836.13;5053369;28;20091;-60
2023/09/11 14:46:59;;;;;;;4.77;3.37;;;;;;;33.27;34.36;99829.63;5053232;28;20327;-60
2023/09/11 14:49:25;;;;;;;7.27;3.93;;;;;;;33.09;34.25;99825.34;5053295;28;20041;-59
2023/09/11 14:51:50;;;;;;;5.63;3.57;;;;;;;33.12;33.83;99819.16;5058935;28;20037;-57
2023/09/11 14:54:15;;;;;;;5.93;3.63;;;;;;;32.98;33.50;99830.44;5073010;28;20097;-59
2023/09/11 14:56:41;;;;;;;8.23;4.07;;;;;;;32.98;34.85;99824.91;5073045;28;20464;-59
2023/09/11 14:59:07;;;;;;;8.33;4.70;;;;;;;32.88;33.78;99825.31;5072984;28;20040;-59
2023/09/11 15:01:35;;;;;;;12.97;4.53;;;;;;;32.86;33.70;99824.78;5073059;28;20158;-59
2023/09/11 15:04:01;;;;;;;4.85;3.60;;;;;;;32.89;33.60;99815.88;5072726;28;20040;-59
2023/09/11 15:06:27;;;;;;;6.32;3.35;;;;;;;32.64;33.61;99821.16;5072046;28;20075;-58
2023/09/11 15:08:54;;;;;;;7.97;3.87;;;;;;;32.62;33.54;99820.69;5073005;28;20079;-60
2023/09/11 15:11:19;;;;;;;5.05;3.47;;;;;;;32.55;33.59;99816.81;5072756;28;20037;-59
2023/09/11 15:13:44;;;;;;;4.43;2.97;;;;;;;32.45;33.50;99815.22;5072496;28;20047;-60
2023/09/11 15:16:10;;;;;;;5.33;3.53;;;;;;;32.34;33.30;99813.97;5072704;28;20526;-60
2023/09/11 15:18:36;;;;;;;5.00;3.70;;;;;;;32.32;32.48;99813.47;5072725;28;20085;-59
2023/09/11 15:21:02;;;;;;;4.70;3.33;;;;;;;32.24;32.32;99811.53;5072769;28;20041;-60
2023/09/11 15:23:27;;;;;;;5.17;3.20;;;;;;;32.18;32.45;99804.59;5072431;28;20028;-59
2023/09/11 15:25:53;;;;;;;5.77;3.40;;;;;;;32.16;32.11;99807.69;5072551;28;20040;-59
2023/09/11 15:28:18;;;;;;;3.67;3.27;;;;;;;32.04;32.23;99802.84;5072623;28;20181;-58
2023/09/11 15:30:49;;;;;;;7.37;3.57;;;;;;;31.98;32.37;99801.38;5072501;28;20064;-59
2023/09/11 15:33:14;;;;;;;3.75;3.05;;;;;;;31.91;32.72;99803.03;5072289;28;20522;-60
2023/09/11 15:36:00;;;;;;;5.70;3.30;;;;;;;31.89;32.56;99806.09;5072334;28;20040;-60
2023/09/11 15:38:25;;;;;;;5.80;3.40;;;;;;;31.76;31.72;99798.81;5072474;28;20085;-58
2023/09/11 15:40:51;;;;;;;4.40;3.20;;;;;;;31.80;32.73;99802.53;5072428;28;20036;-61
2023/09/11 15:43:16;;;;;;;6.70;3.73;;;;;;;31.83;32.84;99797.19;5072192;28;20041;-59